createdAt,value
2019-01-10T00:00:04.076Z,68.43
2019-01-10T00:01:04.068Z,69.57
2019-01-10T00:02:04.052Z,69.57
2019-01-10T00:03:04.055Z,67.80
2019-01-10T00:04:04.028Z,67.60
2019-01-10T00:05:04.003Z,67.49
2019-01-10T00:06:04.002Z,69.05
2019-01-10T00:07:03.978Z,69.26
2019-01-10T00:08:03.982Z,69.85
2019-01-10T00:09:03.975Z,68.95
2019-01-10T00:10:03.940Z,67.46
2019-01-10T00:11:03.939Z,69.15
2019-01-10T00:12:03.924Z,68.19
2019-01-10T00:13:03.910Z,68.12
2019-01-10T00:14:03.924Z,69.05
2019-01-10T00:15:03.890Z,69.74
2019-01-10T00:16:03.879Z,69.02
2019-01-10T00:17:03.873Z,69.15
2019-01-10T00:18:03.914Z,69.05
2019-01-10T00:19:03.863Z,68.19
2019-01-10T00:20:03.836Z,68.32
2019-01-10T00:21:03.859Z,69.47
2019-01-10T00:22:03.808Z,70.20
2019-01-10T00:23:03.828Z,69.05
2019-01-10T00:24:03.812Z,68.95
2019-01-10T00:25:03.828Z,69.26
2019-01-10T00:26:03.768Z,68.95
2019-01-10T00:27:03.757Z,68.63
2019-01-10T00:28:03.745Z,68.84
2019-01-10T00:29:03.759Z,69.37
2019-01-10T00:30:03.749Z,69.15
2019-01-10T00:31:03.727Z,69.68
2019-01-10T00:32:03.706Z,69.05
2019-01-10T00:33:03.688Z,69.57
2019-01-10T00:34:03.680Z,69.89
2019-01-10T00:35:03.693Z,69.57
2019-01-10T00:36:03.664Z,69.37
2019-01-10T00:37:03.650Z,69.64
2019-01-10T00:38:03.649Z,69.68
2019-01-10T00:39:03.640Z,69.37
2019-01-10T00:40:03.654Z,69.89
2019-01-10T00:41:03.605Z,70.30
2019-01-10T00:42:03.627Z,69.57
2019-01-10T00:43:03.591Z,69.89
2019-01-10T00:44:03.574Z,69.15
2019-01-10T00:45:03.576Z,69.57
2019-01-10T00:46:03.573Z,69.26
2019-01-10T00:47:03.563Z,70.30
2019-01-10T00:48:03.682Z,69.89
2019-01-10T00:49:03.517Z,70.92
2019-01-10T00:50:03.515Z,71.34
2019-01-10T00:51:03.530Z,71.34
2019-01-10T00:52:03.538Z,69.99
2019-01-10T00:53:03.481Z,70.40
2019-01-10T00:54:03.467Z,70.82
2019-01-10T00:55:03.467Z,70.30
2019-01-10T00:56:03.439Z,70.20
2019-01-10T00:57:03.433Z,70.09
2019-01-10T00:58:03.431Z,70.09
2019-01-10T00:59:03.435Z,71.03
2019-01-10T01:00:03.442Z,70.92
2019-01-10T01:01:03.407Z,70.72
2019-01-10T01:02:03.384Z,70.72
2019-01-10T01:03:03.364Z,70.82
2019-01-10T01:04:03.355Z,71.03
2019-01-10T01:05:03.342Z,71.23
2019-01-10T01:06:03.345Z,71.44
2019-01-10T01:07:03.323Z,70.92
2019-01-10T01:08:03.306Z,71.13
2019-01-10T01:09:03.316Z,70.51
2019-01-10T01:10:03.286Z,69.89
2019-01-10T01:11:03.296Z,70.40
2019-01-10T01:12:03.287Z,69.89
2019-01-10T01:13:03.262Z,70.72
2019-01-10T01:14:03.244Z,70.20
2019-01-10T01:15:03.231Z,69.78
2019-01-10T01:16:03.267Z,70.51
2019-01-10T01:17:03.210Z,70.72
2019-01-10T01:18:03.202Z,70.82
2019-01-10T01:19:03.215Z,70.72
2019-01-10T01:20:03.172Z,70.51
2019-01-10T01:21:03.178Z,70.72
2019-01-10T01:22:03.174Z,70.30
2019-01-10T01:23:03.145Z,70.82
2019-01-10T01:24:03.132Z,70.30
2019-01-10T01:25:03.165Z,71.34
2019-01-10T01:26:03.148Z,71.55
2019-01-10T01:27:03.102Z,70.72
2019-01-10T01:28:03.085Z,71.13
2019-01-10T01:29:03.104Z,70.61
2019-01-10T01:30:03.071Z,71.34
2019-01-10T01:31:03.086Z,70.92
2019-01-10T01:32:03.055Z,71.23
2019-01-10T01:33:03.052Z,70.92
2019-01-10T01:34:03.037Z,71.23
2019-01-10T01:35:03.033Z,71.34
2019-01-10T01:36:03.006Z,70.82
2019-01-10T01:37:03.019Z,71.86
2019-01-10T01:38:03.000Z,71.03
2019-01-10T01:39:02.971Z,71.86
2019-01-10T01:40:02.957Z,71.97
2019-01-10T01:41:02.990Z,71.13
2019-01-10T01:42:02.953Z,71.34
2019-01-10T01:43:07.514Z,70.61
2019-01-10T01:44:02.915Z,71.13
2019-01-10T01:45:02.914Z,70.92
2019-01-10T01:46:02.913Z,72.17
2019-01-10T01:47:02.913Z,70.92
2019-01-10T01:48:02.871Z,71.03
2019-01-10T01:49:02.866Z,71.03
2019-01-10T01:50:02.845Z,71.97
2019-01-10T01:51:02.847Z,71.13
2019-01-10T01:52:02.861Z,71.03
2019-01-10T01:53:02.844Z,70.40
2019-01-10T01:54:02.802Z,71.03
2019-01-10T01:55:02.794Z,71.13
2019-01-10T01:56:02.820Z,71.13
2019-01-10T01:57:02.768Z,70.72
2019-01-10T01:58:02.813Z,70.37
2019-01-10T01:59:02.759Z,71.34
2019-01-10T02:00:02.762Z,70.82
2019-01-10T02:01:02.724Z,70.92
2019-01-10T02:02:02.711Z,71.34
2019-01-10T02:03:02.720Z,71.23
2019-01-10T02:04:02.700Z,70.61
2019-01-10T02:05:02.701Z,71.55
2019-01-10T02:06:02.703Z,71.65
2019-01-10T02:07:02.679Z,71.86
2019-01-10T02:08:02.659Z,72.07
2019-01-10T02:09:02.657Z,72.07
2019-01-10T02:10:02.636Z,71.34
2019-01-10T02:11:02.620Z,71.75
2019-01-10T02:12:02.626Z,70.82
2019-01-10T02:13:02.592Z,71.97
2019-01-10T02:14:02.603Z,71.13
2019-01-10T02:15:02.618Z,72.17
2019-01-10T02:16:02.565Z,72.17
2019-01-10T02:17:02.548Z,71.86
2019-01-10T02:18:02.578Z,71.65
2019-01-10T02:19:02.528Z,71.86
2019-01-10T02:20:02.534Z,71.75
2019-01-10T02:21:02.499Z,71.23
2019-01-10T02:22:02.486Z,72.07
2019-01-10T02:23:02.488Z,71.34
2019-01-10T02:24:02.500Z,71.03
2019-01-10T02:25:02.468Z,71.03
2019-01-10T02:26:02.445Z,71.13
2019-01-10T02:27:02.439Z,71.48
2019-01-10T02:28:02.480Z,72.17
2019-01-10T02:29:02.437Z,71.03
2019-01-10T02:30:02.407Z,71.13
2019-01-10T02:31:02.402Z,71.86
2019-01-10T02:32:02.378Z,71.75
2019-01-10T02:33:02.382Z,70.82
2019-01-10T02:34:02.382Z,71.03
2019-01-10T02:35:02.362Z,71.13
2019-01-10T02:36:02.337Z,71.37
2019-01-10T02:37:02.324Z,71.17
2019-01-10T02:38:02.328Z,71.03
2019-01-10T02:39:02.361Z,71.03
2019-01-10T02:40:02.314Z,71.89
2019-01-10T02:41:02.824Z,72.41
2019-01-10T02:42:02.268Z,71.86
2019-01-10T02:43:02.278Z,71.37
2019-01-10T02:44:02.261Z,70.72
2019-01-10T02:45:02.276Z,71.44
2019-01-10T02:46:02.235Z,71.13
2019-01-10T02:47:02.231Z,71.23
2019-01-10T02:48:02.219Z,70.92
2019-01-10T02:49:02.245Z,71.13
2019-01-10T02:50:02.216Z,71.75
2019-01-10T02:51:02.174Z,71.03
2019-01-10T02:52:02.178Z,72.17
2019-01-10T02:53:02.156Z,71.86
2019-01-10T02:54:02.145Z,71.89
2019-01-10T02:55:02.152Z,71.06
2019-01-10T02:56:02.130Z,71.03
2019-01-10T02:57:02.111Z,70.82
2019-01-10T02:58:02.106Z,71.27
2019-01-10T02:59:02.091Z,71.55
2019-01-10T03:00:02.115Z,71.65
2019-01-10T03:01:02.058Z,71.58
2019-01-10T03:02:02.076Z,71.06
2019-01-10T03:03:02.058Z,71.23
2019-01-10T03:04:02.028Z,72.07
2019-01-10T03:05:02.044Z,72.10
2019-01-10T03:06:02.033Z,72.20
2019-01-10T03:07:02.002Z,72.07
2019-01-10T03:08:01.985Z,70.72
2019-01-10T03:09:02.006Z,70.92
2019-01-10T03:10:01.977Z,71.75
2019-01-10T03:11:01.974Z,72.17
2019-01-10T03:12:01.941Z,71.65
2019-01-10T03:13:01.959Z,71.86
2019-01-10T03:14:01.922Z,72.07
2019-01-10T03:15:01.910Z,71.75
2019-01-10T03:16:01.998Z,71.23
2019-01-10T03:17:01.903Z,71.97
2019-01-10T03:18:01.882Z,71.03
2019-01-10T03:19:01.872Z,70.82
2019-01-10T03:20:01.879Z,71.34
2019-01-10T03:21:01.867Z,71.86
2019-01-10T03:22:01.834Z,72.07
2019-01-10T03:23:01.822Z,71.65
2019-01-10T03:24:01.813Z,71.34
2019-01-10T03:25:01.803Z,72.07
2019-01-10T03:26:01.814Z,72.07
2019-01-10T03:27:01.774Z,71.13
2019-01-10T03:28:01.784Z,71.03
2019-01-10T03:29:01.754Z,70.72
2019-01-10T03:30:01.741Z,71.86
2019-01-10T03:31:01.760Z,71.03
2019-01-10T03:32:01.745Z,72.34
2019-01-10T03:33:01.711Z,71.97
2019-01-10T03:34:01.698Z,71.03
2019-01-10T03:35:01.689Z,71.34
2019-01-10T03:36:01.779Z,71.75
2019-01-10T03:37:01.701Z,71.34
2019-01-10T03:38:01.705Z,70.72
2019-01-10T03:39:01.643Z,71.13
2019-01-10T03:40:01.675Z,71.62
2019-01-10T03:41:01.637Z,71.93
2019-01-10T03:42:01.633Z,70.92
2019-01-10T03:43:01.616Z,71.86
2019-01-10T03:44:01.590Z,71.86
2019-01-10T03:45:01.589Z,71.72
2019-01-10T03:46:01.581Z,71.23
2019-01-10T03:47:01.588Z,71.03
2019-01-10T03:48:01.554Z,71.23
2019-01-10T03:49:01.541Z,71.23
2019-01-10T03:50:01.527Z,71.13
2019-01-10T03:51:01.514Z,71.55
2019-01-10T03:52:01.542Z,71.65
2019-01-10T03:53:01.541Z,70.82
2019-01-10T03:54:01.490Z,72.07
2019-01-10T03:55:01.485Z,72.69
2019-01-10T03:56:01.475Z,72.38
2019-01-10T03:57:01.472Z,71.65
2019-01-10T03:58:01.456Z,72.17
2019-01-10T03:59:01.434Z,71.03
2019-01-10T04:00:01.426Z,71.23
2019-01-10T04:01:01.448Z,71.65
2019-01-10T04:02:01.434Z,71.75
2019-01-10T04:03:01.395Z,70.92
2019-01-10T04:04:01.388Z,71.86
2019-01-10T04:05:01.384Z,71.58
2019-01-10T04:06:01.374Z,71.13
2019-01-10T04:07:01.363Z,70.95
2019-01-10T04:08:01.334Z,71.69
2019-01-10T04:09:01.322Z,71.97
2019-01-10T04:10:01.314Z,72.20
2019-01-10T04:11:01.345Z,71.65
2019-01-10T04:12:03.358Z,71.75
2019-01-10T04:13:01.273Z,71.86
2019-01-10T04:14:01.262Z,71.58
2019-01-10T04:15:01.251Z,71.79
2019-01-10T04:16:01.258Z,71.58
2019-01-10T04:17:01.267Z,71.89
2019-01-10T04:18:01.240Z,71.79
2019-01-10T04:19:01.227Z,71.79
2019-01-10T04:20:01.198Z,71.69
2019-01-10T04:21:01.199Z,71.69
2019-01-10T04:22:01.193Z,71.89
2019-01-10T04:23:01.220Z,72.31
2019-01-10T04:24:01.155Z,72.20
2019-01-10T04:25:01.230Z,72.20
2019-01-10T04:26:01.140Z,72.20
2019-01-10T04:27:01.150Z,72.10
2019-01-10T04:28:01.127Z,72.41
2019-01-10T04:29:01.127Z,72.41
2019-01-10T04:30:01.089Z,71.89
2019-01-10T04:31:01.082Z,71.89
2019-01-10T04:32:01.076Z,72.20
2019-01-10T04:33:01.061Z,71.79
2019-01-10T04:34:01.073Z,71.79
2019-01-10T04:35:01.039Z,72.20
2019-01-10T04:36:01.035Z,71.37
2019-01-10T04:37:01.041Z,72.10
2019-01-10T04:38:01.008Z,72.31
2019-01-10T04:39:01.023Z,72.10
2019-01-10T04:40:00.987Z,72.41
2019-01-10T04:41:00.968Z,72.00
2019-01-10T04:42:00.966Z,72.72
2019-01-10T04:43:00.945Z,72.10
2019-01-10T04:44:06.945Z,72.00
2019-01-10T04:45:01.996Z,72.28
2019-01-10T04:46:00.927Z,72.83
2019-01-10T04:47:00.900Z,71.79
2019-01-10T04:48:00.902Z,72.83
2019-01-10T04:49:00.887Z,72.10
2019-01-10T04:50:00.895Z,72.10
2019-01-10T04:51:00.876Z,71.69
2019-01-10T04:52:00.865Z,72.00
2019-01-10T04:53:00.842Z,72.20
2019-01-10T04:54:00.837Z,74.08
2019-01-10T04:55:00.850Z,72.41
2019-01-10T04:56:00.803Z,72.10
2019-01-10T04:57:00.832Z,72.93
2019-01-10T04:58:00.792Z,72.41
2019-01-10T04:59:00.776Z,72.20
2019-01-10T05:00:00.799Z,71.89
2019-01-10T05:01:00.759Z,72.72
2019-01-10T05:02:00.736Z,72.00
2019-01-10T05:03:00.745Z,71.69
2019-01-10T05:04:00.717Z,71.89
2019-01-10T05:05:01.898Z,71.89
2019-01-10T05:06:00.757Z,72.38
2019-01-10T05:07:00.705Z,72.41
2019-01-10T05:08:00.674Z,71.89
2019-01-10T05:09:00.685Z,72.10
2019-01-10T05:10:00.676Z,72.83
2019-01-10T05:11:00.682Z,71.48
2019-01-10T05:12:00.632Z,72.00
2019-01-10T05:13:00.623Z,72.49
2019-01-10T05:14:00.613Z,71.97
2019-01-10T05:15:00.619Z,71.55
2019-01-10T05:16:00.643Z,72.20
2019-01-10T05:17:00.596Z,72.28
2019-01-10T05:18:00.576Z,71.75
2019-01-10T05:19:00.578Z,71.58
2019-01-10T05:20:00.562Z,72.20
2019-01-10T05:21:00.576Z,71.89
2019-01-10T05:22:00.522Z,72.31
2019-01-10T05:23:00.523Z,73.14
2019-01-10T05:24:00.504Z,72.31
2019-01-10T05:25:00.612Z,72.93
2019-01-10T05:26:00.500Z,72.00
2019-01-10T05:27:00.501Z,71.55
2019-01-10T05:28:00.457Z,71.89
2019-01-10T05:29:00.453Z,71.58
2019-01-10T05:30:00.445Z,71.48
2019-01-10T05:31:00.441Z,72.20
2019-01-10T05:32:02.533Z,71.97
2019-01-10T05:33:00.433Z,71.89
2019-01-10T05:34:00.415Z,72.00
2019-01-10T05:35:00.401Z,72.20
2019-01-10T05:36:00.382Z,72.00
2019-01-10T05:37:00.382Z,72.10
2019-01-10T05:38:00.370Z,72.10
2019-01-10T05:39:00.339Z,72.10
2019-01-10T05:40:00.327Z,71.79
2019-01-10T05:41:00.322Z,72.00
2019-01-10T05:42:00.335Z,72.10
2019-01-10T05:43:00.328Z,72.31
2019-01-10T05:44:00.298Z,72.00
2019-01-10T05:45:00.353Z,72.41
2019-01-10T05:46:00.264Z,72.20
2019-01-10T05:47:00.279Z,72.10
2019-01-10T05:48:00.407Z,72.10
2019-01-10T05:49:00.236Z,71.89
2019-01-10T05:50:00.230Z,72.41
2019-01-10T05:51:00.211Z,72.72
2019-01-10T05:52:00.226Z,72.93
2019-01-10T05:53:00.210Z,72.93
2019-01-10T05:54:00.200Z,72.52
2019-01-10T05:55:00.319Z,72.83
2019-01-10T05:56:00.171Z,72.10
2019-01-10T05:57:00.157Z,71.89
2019-01-10T05:58:00.145Z,71.89
2019-01-10T05:59:00.154Z,72.00
2019-01-10T06:00:00.170Z,72.34
2019-01-10T06:01:00.101Z,72.93
2019-01-10T06:02:00.089Z,73.38
2019-01-10T06:03:00.106Z,73.35
2019-01-10T06:04:00.080Z,72.97
2019-01-10T06:05:00.140Z,72.55
2019-01-10T06:06:00.048Z,72.66
2019-01-10T06:07:00.046Z,72.97
2019-01-10T06:08:00.044Z,72.93
2019-01-10T06:09:00.020Z,73.07
2019-01-10T06:10:00.021Z,73.07
2019-01-10T06:11:00.011Z,73.18
2019-01-10T06:12:00.001Z,73.18
2019-01-10T06:12:59.989Z,72.97
2019-01-10T06:13:59.974Z,72.62
2019-01-10T06:15:00.035Z,72.97
2019-01-10T06:15:59.949Z,73.07
2019-01-10T06:16:59.930Z,73.46
2019-01-10T06:17:59.917Z,73.18
2019-01-10T06:18:59.919Z,73.07
2019-01-10T06:19:59.891Z,72.13
2019-01-10T06:20:59.881Z,72.97
2019-01-10T06:21:59.876Z,73.49
2019-01-10T06:22:59.887Z,72.34
2019-01-10T06:23:59.882Z,73.10
2019-01-10T06:24:59.838Z,72.69
2019-01-10T06:25:59.844Z,73.00
2019-01-10T06:26:59.824Z,72.27
2019-01-10T06:27:59.809Z,72.58
2019-01-10T06:28:59.829Z,72.76
2019-01-10T06:30:00.013Z,72.79
2019-01-10T06:30:59.779Z,73.52
2019-01-10T06:31:59.763Z,73.32
2019-01-10T06:32:59.791Z,74.04
2019-01-10T06:33:59.778Z,74.15
2019-01-10T06:34:59.731Z,73.63
2019-01-10T06:35:59.724Z,73.10
2019-01-10T06:36:59.705Z,73.42
2019-01-10T06:37:59.696Z,73.32
2019-01-10T06:38:59.697Z,73.94
2019-01-10T06:39:59.676Z,73.45
2019-01-10T06:40:59.666Z,73.83
2019-01-10T06:41:59.658Z,73.83
2019-01-10T06:42:59.642Z,74.25
2019-01-10T06:43:59.652Z,74.46
2019-01-10T06:44:59.619Z,74.35
2019-01-10T06:45:59.608Z,74.35
2019-01-10T06:46:59.598Z,74.46
2019-01-10T06:47:59.593Z,73.10
2019-01-10T06:48:59.640Z,73.73
2019-01-10T06:49:59.562Z,73.52
2019-01-10T06:50:59.555Z,73.52
2019-01-10T06:51:59.551Z,73.73
2019-01-10T06:52:59.530Z,74.15
2019-01-10T06:53:59.540Z,73.94
2019-01-10T06:54:59.563Z,73.83
2019-01-10T06:55:59.589Z,73.94
2019-01-10T06:56:59.491Z,74.15
2019-01-10T06:57:59.485Z,74.04
2019-01-10T06:58:59.562Z,73.73
2019-01-10T06:59:59.511Z,73.10
2019-01-10T07:00:59.475Z,73.83
2019-01-10T07:01:59.445Z,74.11
2019-01-10T07:02:59.435Z,74.66
2019-01-10T07:03:59.412Z,73.73
2019-01-10T07:04:59.393Z,73.94
2019-01-10T07:05:59.437Z,74.56
2019-01-10T07:06:59.397Z,74.15
2019-01-10T07:07:59.367Z,74.35
2019-01-10T07:08:59.364Z,73.42
2019-01-10T07:09:59.464Z,73.94
2019-01-10T07:10:59.347Z,73.42
2019-01-10T07:11:59.319Z,73.32
2019-01-10T07:12:59.308Z,73.83
2019-01-10T07:13:59.301Z,73.10
2019-01-10T07:14:59.286Z,73.52
2019-01-10T07:15:59.296Z,73.69
2019-01-10T07:16:59.268Z,73.83
2019-01-10T07:17:59.257Z,73.73
2019-01-10T07:18:59.244Z,73.83
2019-01-10T07:19:59.230Z,74.04
2019-01-10T07:20:59.265Z,74.35
2019-01-10T07:21:59.208Z,74.77
2019-01-10T07:22:59.197Z,74.98
2019-01-10T07:23:59.186Z,73.73
2019-01-10T07:24:59.177Z,73.83
2019-01-10T07:25:59.202Z,73.94
2019-01-10T07:26:59.154Z,74.04
2019-01-10T07:27:59.142Z,73.73
2019-01-10T07:28:59.132Z,73.42
2019-01-10T07:29:59.750Z,73.83
2019-01-10T07:30:59.182Z,73.32
2019-01-10T07:31:59.102Z,72.89
2019-01-10T07:32:59.093Z,74.66
2019-01-10T07:33:59.078Z,73.42
2019-01-10T07:34:59.072Z,73.21
2019-01-10T07:35:59.063Z,73.90
2019-01-10T07:36:59.060Z,74.25
2019-01-10T07:37:59.030Z,72.79
2019-01-10T07:38:59.027Z,73.63
2019-01-10T07:39:59.046Z,72.79
2019-01-10T07:40:59.003Z,72.17
2019-01-10T07:41:59.017Z,72.48
2019-01-10T07:42:58.995Z,73.00
2019-01-10T07:43:58.965Z,73.00
2019-01-10T07:45:02.878Z,72.97
2019-01-10T07:45:58.943Z,72.86
2019-01-10T07:46:58.946Z,72.27
2019-01-10T07:47:58.919Z,73.18
2019-01-10T07:48:58.912Z,71.92
2019-01-10T07:49:58.901Z,72.76
2019-01-10T07:50:58.893Z,73.07
2019-01-10T07:51:58.901Z,73.69
2019-01-10T07:52:58.866Z,72.13
2019-01-10T07:53:58.860Z,71.09
2019-01-10T07:54:58.847Z,72.13
2019-01-10T07:55:58.845Z,71.54
2019-01-10T07:56:58.883Z,72.66
2019-01-10T07:57:58.830Z,72.03
2019-01-10T07:58:58.800Z,71.72
2019-01-10T07:59:58.793Z,71.30
2019-01-10T08:00:58.789Z,71.41
2019-01-10T08:01:58.778Z,69.53
2019-01-10T08:02:58.774Z,69.84
2019-01-10T08:03:58.744Z,71.02
2019-01-10T08:04:58.741Z,70.71
2019-01-10T08:05:58.721Z,71.09
2019-01-10T08:06:58.717Z,71.20
2019-01-10T08:07:58.723Z,71.92
2019-01-10T08:08:58.696Z,71.09
2019-01-10T08:09:58.690Z,70.68
2019-01-10T08:10:58.670Z,70.89
2019-01-10T08:12:00.661Z,71.30
2019-01-10T08:12:58.673Z,71.72
2019-01-10T08:13:58.648Z,71.92
2019-01-10T08:14:58.634Z,71.41
2019-01-10T08:15:58.612Z,69.84
2019-01-10T08:16:58.602Z,70.54
2019-01-10T08:17:58.617Z,71.61
2019-01-10T08:18:58.580Z,71.79
2019-01-10T08:19:58.572Z,72.31
2019-01-10T08:20:58.566Z,71.41
2019-01-10T08:21:58.549Z,71.17
2019-01-10T08:22:58.559Z,71.17
2019-01-10T08:23:58.530Z,72.83
2019-01-10T08:24:58.583Z,71.79
2019-01-10T08:25:58.513Z,71.17
2019-01-10T08:26:58.494Z,71.48
2019-01-10T08:27:58.514Z,71.37
2019-01-10T08:28:58.472Z,71.06
2019-01-10T08:29:58.464Z,71.37
2019-01-10T08:30:58.448Z,71.37
2019-01-10T08:31:58.443Z,69.92
2019-01-10T08:32:58.429Z,70.23
2019-01-10T08:33:58.432Z,70.12
2019-01-10T08:34:58.416Z,69.71
2019-01-10T08:35:58.403Z,69.50
2019-01-10T08:36:58.394Z,70.12
2019-01-10T08:37:58.379Z,69.60
2019-01-10T08:38:58.379Z,68.98
2019-01-10T08:39:58.355Z,68.88
2019-01-10T08:40:58.350Z,69.60
2019-01-10T08:41:58.333Z,69.12
2019-01-10T08:42:58.314Z,70.95
2019-01-10T08:43:58.328Z,69.81
2019-01-10T08:44:58.292Z,69.40
2019-01-10T08:45:58.282Z,69.60
2019-01-10T08:46:58.293Z,70.54
2019-01-10T08:47:58.259Z,71.17
2019-01-10T08:48:58.269Z,69.19
2019-01-10T08:49:58.244Z,69.81
2019-01-10T08:50:58.225Z,69.57
2019-01-10T08:51:58.216Z,69.60
2019-01-10T08:52:58.207Z,70.20
2019-01-10T08:53:58.212Z,69.71
2019-01-10T08:54:58.188Z,69.92
2019-01-10T08:55:58.181Z,69.92
2019-01-10T08:56:58.161Z,70.95
2019-01-10T08:57:58.149Z,71.44
2019-01-10T08:58:58.167Z,71.97
2019-01-10T08:59:58.134Z,70.20
2019-01-10T09:00:58.122Z,70.61
2019-01-10T09:01:58.111Z,69.57
2019-01-10T09:02:58.098Z,70.51
2019-01-10T09:03:58.090Z,69.37
2019-01-10T09:04:58.088Z,70.82
2019-01-10T09:05:58.066Z,68.95
2019-01-10T09:06:58.058Z,70.92
2019-01-10T09:07:58.042Z,68.84
2019-01-10T09:08:58.053Z,68.74
2019-01-10T09:09:58.049Z,68.84
2019-01-10T09:10:58.014Z,69.57
2019-01-10T09:11:58.003Z,68.12
2019-01-10T09:12:57.989Z,68.95
2019-01-10T09:13:57.977Z,67.18
2019-01-10T09:14:57.980Z,68.91
2019-01-10T09:15:57.968Z,69.37
2019-01-10T09:16:57.943Z,67.18
2019-01-10T09:17:57.946Z,67.18
2019-01-10T09:18:57.932Z,68.22
2019-01-10T09:19:57.926Z,67.29
2019-01-10T09:21:04.199Z,68.12
2019-01-10T09:21:58.890Z,67.70
2019-01-10T09:22:57.883Z,68.08
2019-01-10T09:23:57.870Z,67.18
2019-01-10T09:24:57.871Z,69.15
2019-01-10T09:25:57.856Z,66.66
2019-01-10T09:26:57.838Z,66.03
2019-01-10T09:27:57.833Z,65.80
2019-01-10T09:28:57.814Z,66.66
2019-01-10T09:29:57.832Z,65.20
2019-01-10T09:30:57.815Z,66.97
2019-01-10T09:31:57.783Z,66.03
2019-01-10T09:32:57.774Z,65.72
2019-01-10T09:33:57.754Z,65.80
2019-01-10T09:34:57.751Z,65.93
2019-01-10T09:35:57.761Z,64.86
2019-01-10T09:36:57.728Z,64.45
2019-01-10T09:37:57.715Z,64.86
2019-01-10T09:38:57.707Z,65.17
2019-01-10T09:39:57.696Z,64.55
2019-01-10T09:40:57.709Z,65.48
2019-01-10T09:41:57.683Z,67.15
2019-01-10T09:42:57.660Z,65.17
2019-01-10T09:43:57.652Z,67.25
2019-01-10T09:44:57.678Z,65.69
2019-01-10T09:45:57.666Z,63.41
2019-01-10T09:46:57.617Z,63.51
2019-01-10T09:47:57.609Z,64.62
2019-01-10T09:48:57.606Z,64.45
2019-01-10T09:49:57.689Z,64.31
2019-01-10T09:50:57.592Z,63.59
2019-01-10T09:51:57.577Z,63.62
2019-01-10T09:52:57.555Z,63.31
2019-01-10T09:53:57.541Z,62.02
2019-01-10T09:54:57.526Z,62.55
2019-01-10T09:55:57.538Z,63.28
2019-01-10T09:56:57.521Z,63.90
2019-01-10T09:57:57.495Z,65.25
2019-01-10T09:58:57.490Z,62.55
2019-01-10T09:59:57.474Z,61.30
2019-01-10T10:00:57.460Z,60.47
2019-01-10T10:01:57.491Z,60.75
2019-01-10T10:02:57.452Z,61.69
2019-01-10T10:03:57.429Z,60.65
2019-01-10T10:04:57.418Z,60.65
2019-01-10T10:05:57.410Z,61.07
2019-01-10T10:06:57.448Z,61.48
2019-01-10T10:07:57.389Z,60.65
2019-01-10T10:08:57.378Z,59.19
2019-01-10T10:09:57.366Z,60.55
2019-01-10T10:10:57.359Z,59.40
2019-01-10T10:11:57.381Z,59.61
2019-01-10T10:12:57.358Z,59.48
2019-01-10T10:13:57.329Z,58.96
2019-01-10T10:14:57.313Z,59.79
2019-01-10T10:15:57.306Z,60.65
2019-01-10T10:16:57.319Z,60.52
2019-01-10T10:17:57.295Z,60.21
2019-01-10T10:18:57.272Z,60.41
2019-01-10T10:19:57.258Z,60.21
2019-01-10T10:20:57.266Z,61.45
2019-01-10T10:21:57.235Z,60.83
2019-01-10T10:22:57.250Z,60.72
2019-01-10T10:23:57.218Z,59.48
2019-01-10T10:24:57.217Z,60.00
2019-01-10T10:25:57.209Z,59.04
2019-01-10T10:26:57.194Z,58.65
2019-01-10T10:27:57.210Z,58.54
2019-01-10T10:28:57.172Z,57.92
2019-01-10T10:29:57.158Z,58.65
2019-01-10T10:30:57.138Z,59.79
2019-01-10T10:31:57.133Z,58.75
2019-01-10T10:32:57.130Z,57.82
2019-01-10T10:33:57.103Z,57.51
2019-01-10T10:34:57.111Z,58.05
2019-01-10T10:35:57.088Z,58.05
2019-01-10T10:36:57.074Z,59.79
2019-01-10T10:37:57.078Z,58.88
2019-01-10T10:38:57.051Z,58.15
2019-01-10T10:39:57.041Z,58.36
2019-01-10T10:40:57.037Z,58.15
2019-01-10T10:41:57.016Z,59.40
2019-01-10T10:42:57.055Z,60.44
2019-01-10T10:43:56.998Z,60.55
2019-01-10T10:44:56.984Z,59.82
2019-01-10T10:46:01.697Z,59.64
2019-01-10T10:46:57.962Z,59.33
2019-01-10T10:47:56.987Z,59.84
2019-01-10T10:48:56.940Z,60.57
2019-01-10T10:49:56.931Z,60.57
2019-01-10T10:50:56.919Z,62.34
2019-01-10T10:51:56.918Z,62.76
2019-01-10T10:52:56.901Z,60.16
2019-01-10T10:53:56.923Z,59.95
2019-01-10T10:54:56.877Z,60.57
2019-01-10T10:55:56.876Z,60.99
2019-01-10T10:56:56.861Z,60.05
2019-01-10T10:57:56.850Z,60.68
2019-01-10T10:58:56.849Z,61.71
2019-01-10T10:59:56.835Z,60.68
2019-01-10T11:00:56.812Z,62.24
2019-01-10T11:01:56.898Z,62.34
2019-01-10T11:02:56.789Z,62.24
2019-01-10T11:03:56.813Z,60.99
2019-01-10T11:04:56.773Z,62.02
2019-01-10T11:05:56.764Z,62.55
2019-01-10T11:06:56.752Z,63.07
2019-01-10T11:07:56.738Z,61.61
2019-01-10T11:08:56.753Z,61.40
2019-01-10T11:09:56.720Z,60.19
2019-01-10T11:10:56.702Z,61.51
2019-01-10T11:11:56.692Z,62.02
2019-01-10T11:12:56.680Z,61.30
2019-01-10T11:13:56.697Z,62.55
2019-01-10T11:14:56.658Z,63.38
2019-01-10T11:15:56.655Z,62.24
2019-01-10T11:16:56.639Z,60.68
2019-01-10T11:17:56.624Z,62.55
2019-01-10T11:18:56.616Z,62.02
2019-01-10T11:19:56.633Z,60.88
2019-01-10T11:20:56.635Z,62.02
2019-01-10T11:21:56.706Z,62.02
2019-01-10T11:22:57.167Z,61.71
2019-01-10T11:23:56.836Z,60.68
2019-01-10T11:24:57.128Z,60.88
2019-01-10T11:25:56.551Z,60.57
2019-01-10T11:26:57.558Z,62.16
2019-01-10T11:27:56.893Z,63.17
2019-01-10T11:28:56.569Z,62.55
2019-01-10T11:29:56.561Z,63.48
2019-01-10T11:30:56.828Z,63.48
2019-01-10T11:31:56.571Z,61.51
2019-01-10T11:32:56.464Z,63.07
2019-01-10T11:33:56.453Z,63.28
2019-01-10T11:34:56.443Z,62.55
2019-01-10T11:35:56.455Z,63.48
2019-01-10T11:36:56.420Z,63.17
2019-01-10T11:37:56.418Z,63.48
2019-01-10T11:38:56.398Z,64.31
2019-01-10T11:39:56.421Z,65.35
2019-01-10T11:40:56.385Z,63.59
2019-01-10T11:41:56.386Z,63.07
2019-01-10T11:42:56.354Z,64.31
2019-01-10T11:43:56.346Z,65.45
2019-01-10T11:44:56.348Z,64.11
2019-01-10T11:45:56.354Z,64.83
2019-01-10T11:46:56.319Z,65.35
2019-01-10T11:47:56.326Z,64.94
2019-01-10T11:48:56.294Z,64.83
2019-01-10T11:49:56.287Z,65.35
2019-01-10T11:50:56.301Z,64.31
2019-01-10T11:51:56.264Z,65.04
2019-01-10T11:52:56.279Z,64.62
2019-01-10T11:53:56.241Z,64.31
2019-01-10T11:54:56.231Z,64.11
2019-01-10T11:55:56.249Z,64.83
2019-01-10T11:56:56.215Z,65.14
2019-01-10T11:57:56.210Z,65.17
2019-01-10T11:58:56.209Z,64.52
2019-01-10T11:59:56.196Z,62.96
2019-01-10T12:00:56.199Z,62.45
2019-01-10T12:01:56.153Z,63.69
2019-01-10T12:02:56.152Z,62.86
2019-01-10T12:03:56.128Z,59.66
2019-01-10T12:04:56.124Z,58.08
2019-01-10T12:05:56.132Z,60.26
2019-01-10T12:06:56.101Z,60.47
2019-01-10T12:07:56.090Z,59.04
2019-01-10T12:08:56.085Z,58.50
2019-01-10T12:09:56.064Z,58.62
2019-01-10T12:10:56.093Z,60.05
2019-01-10T12:11:56.048Z,60.57
2019-01-10T12:12:56.043Z,60.78
2019-01-10T12:13:56.027Z,57.67
2019-01-10T12:14:56.012Z,59.01
2019-01-10T12:15:56.023Z,59.84
2019-01-10T12:16:55.990Z,60.68
2019-01-10T12:17:55.982Z,60.65
2019-01-10T12:18:59.329Z,60.75
2019-01-10T12:19:55.965Z,59.30
2019-01-10T12:20:55.971Z,59.53
2019-01-10T12:21:55.933Z,58.91
2019-01-10T12:22:55.919Z,59.12
2019-01-10T12:23:55.917Z,59.95
2019-01-10T12:24:55.901Z,59.84
2019-01-10T12:25:55.922Z,59.95
2019-01-10T12:26:55.890Z,62.65
2019-01-10T12:27:55.870Z,60.88
2019-01-10T12:28:55.857Z,60.78
2019-01-10T12:29:55.851Z,60.88
2019-01-10T12:30:55.920Z,59.01
2019-01-10T12:31:55.881Z,58.70
2019-01-10T12:32:55.825Z,59.64
2019-01-10T12:33:55.802Z,59.53
2019-01-10T12:34:55.818Z,59.53
2019-01-10T12:35:55.823Z,59.64
2019-01-10T12:37:00.535Z,59.74
2019-01-10T12:37:56.781Z,58.39
2019-01-10T12:38:55.751Z,59.74
2019-01-10T12:39:55.751Z,60.47
2019-01-10T12:40:55.732Z,60.47
2019-01-10T12:41:55.866Z,58.39
2019-01-10T12:42:55.747Z,58.08
2019-01-10T12:43:55.718Z,59.56
2019-01-10T12:44:55.688Z,59.04
2019-01-10T12:45:55.673Z,59.35
2019-01-10T12:46:55.685Z,60.19
2019-01-10T12:47:55.669Z,59.84
2019-01-10T12:48:55.675Z,60.81
2019-01-10T12:49:55.653Z,60.39
2019-01-10T12:50:55.619Z,59.95
2019-01-10T12:51:55.636Z,59.88